sensor_id;sensor_type;location;lat;lon;timestamp;P1;durP1;ratioP1;P2;durP2;ratioP2
64816;SDS011;69411;45.656;11.740;2023-08-01T00:00:04;7.70;;;5.30;;
64816;SDS011;69411;45.656;11.740;2023-08-01T00:02:32;10.02;;;6.10;;
64816;SDS011;69411;45.656;11.740;2023-08-01T00:04:58;8.38;;;5.45;;
64816;SDS011;69411;45.656;11.740;2023-08-01T00:07:25;9.73;;;6.80;;
64816;SDS011;69411;45.656;11.740;2023-08-01T00:09:52;11.82;;;8.35;;
64816;SDS011;69411;45.656;11.740;2023-08-01T00:12:18;11.18;;;6.55;;
64816;SDS011;69411;45.656;11.740;2023-08-01T00:14:44;8.13;;;5.82;;
64816;SDS011;69411;45.656;11.740;2023-08-01T00:17:11;9.95;;;7.00;;
64816;SDS011;69411;45.656;11.740;2023-08-01T00:19:37;9.27;;;6.72;;
64816;SDS011;69411;45.656;11.740;2023-08-01T00:22:03;10.43;;;8.32;;
64816;SDS011;69411;45.656;11.740;2023-08-01T00:24:29;8.07;;;5.55;;
64816;SDS011;69411;45.656;11.740;2023-08-01T00:26:55;7.97;;;6.03;;
64816;SDS011;69411;45.656;11.740;2023-08-01T00:29:22;11.02;;;6.20;;
64816;SDS011;69411;45.656;11.740;2023-08-01T00:31:48;9.85;;;6.63;;
64816;SDS011;69411;45.656;11.740;2023-08-01T00:34:14;9.30;;;6.38;;
64816;SDS011;69411;45.656;11.740;2023-08-01T00:36:40;9.02;;;6.22;;
64816;SDS011;69411;45.656;11.740;2023-08-01T00:39:06;6.45;;;4.88;;
64816;SDS011;69411;45.656;11.740;2023-08-01T00:41:32;7.53;;;5.00;;
64816;SDS011;69411;45.656;11.740;2023-08-01T00:43:58;9.77;;;6.15;;
64816;SDS011;69411;45.656;11.740;2023-08-01T00:46:24;8.48;;;5.63;;
64816;SDS011;69411;45.656;11.740;2023-08-01T00:48:50;8.15;;;6.07;;
64816;SDS011;69411;45.656;11.740;2023-08-01T00:51:17;10.05;;;5.20;;
64816;SDS011;69411;45.656;11.740;2023-08-01T00:53:43;8.57;;;5.40;;
64816;SDS011;69411;45.656;11.740;2023-08-01T00:56:11;13.32;;;5.65;;
64816;SDS011;69411;45.656;11.740;2023-08-01T00:58:37;7.85;;;5.60;;
64816;SDS011;69411;45.656;11.740;2023-08-01T01:01:03;7.05;;;5.15;;
64816;SDS011;69411;45.656;11.740;2023-08-01T01:03:29;7.07;;;5.30;;
64816;SDS011;69411;45.656;11.740;2023-08-01T01:05:57;7.95;;;5.47;;
64816;SDS011;69411;45.656;11.740;2023-08-01T01:08:47;7.28;;;4.90;;
64816;SDS011;69411;45.656;11.740;2023-08-01T01:11:13;10.40;;;5.20;;
64816;SDS011;69411;45.656;11.740;2023-08-01T01:13:40;6.30;;;4.88;;
64816;SDS011;69411;45.656;11.740;2023-08-01T01:16:06;8.15;;;5.13;;
64816;SDS011;69411;45.656;11.740;2023-08-01T01:18:32;10.02;;;4.30;;
64816;SDS011;69411;45.656;11.740;2023-08-01T01:20:58;7.97;;;4.53;;
64816;SDS011;69411;45.656;11.740;2023-08-01T01:23:24;10.18;;;4.80;;
64816;SDS011;69411;45.656;11.740;2023-08-01T01:25:52;8.05;;;4.75;;
64816;SDS011;69411;45.656;11.740;2023-08-01T01:28:19;6.35;;;4.22;;
64816;SDS011;69411;45.656;11.740;2023-08-01T01:30:47;6.70;;;4.35;;
64816;SDS011;69411;45.656;11.740;2023-08-01T01:33:14;8.00;;;4.40;;
64816;SDS011;69411;45.656;11.740;2023-08-01T01:35:41;7.90;;;5.05;;
64816;SDS011;69411;45.656;11.740;2023-08-01T01:38:07;9.85;;;4.70;;
64816;SDS011;69411;45.656;11.740;2023-08-01T01:40:33;9.85;;;4.63;;
64816;SDS011;69411;45.656;11.740;2023-08-01T01:42:59;7.90;;;4.32;;
64816;SDS011;69411;45.656;11.740;2023-08-01T01:45:26;7.63;;;3.78;;
64816;SDS011;69411;45.656;11.740;2023-08-01T01:47:53;7.88;;;3.75;;
64816;SDS011;69411;45.656;11.740;2023-08-01T01:50:19;7.72;;;3.97;;
64816;SDS011;69411;45.656;11.740;2023-08-01T01:52:45;7.28;;;4.00;;
64816;SDS011;69411;45.656;11.740;2023-08-01T01:55:12;6.43;;;3.92;;
64816;SDS011;69411;45.656;11.740;2023-08-01T01:57:38;7.85;;;4.00;;
64816;SDS011;69411;45.656;11.740;2023-08-01T02:00:04;9.15;;;4.50;;
64816;SDS011;69411;45.656;11.740;2023-08-01T02:02:31;5.47;;;3.97;;
64816;SDS011;69411;45.656;11.740;2023-08-01T02:04:57;6.78;;;3.75;;
64816;SDS011;69411;45.656;11.740;2023-08-01T02:07:23;9.02;;;3.88;;
64816;SDS011;69411;45.656;11.740;2023-08-01T02:09:49;8.15;;;3.67;;
64816;SDS011;69411;45.656;11.740;2023-08-01T02:12:15;9.57;;;4.57;;
64816;SDS011;69411;45.656;11.740;2023-08-01T02:14:41;6.57;;;4.25;;
64816;SDS011;69411;45.656;11.740;2023-08-01T02:17:07;10.93;;;4.13;;
64816;SDS011;69411;45.656;11.740;2023-08-01T02:19:33;7.60;;;4.03;;
64816;SDS011;69411;45.656;11.740;2023-08-01T02:21:59;5.13;;;3.28;;
64816;SDS011;69411;45.656;11.740;2023-08-01T02:24:28;5.20;;;3.35;;
64816;SDS011;69411;45.656;11.740;2023-08-01T02:26:54;5.70;;;4.00;;
64816;SDS011;69411;45.656;11.740;2023-08-01T02:29:21;5.88;;;3.55;;
64816;SDS011;69411;45.656;11.740;2023-08-01T02:31:52;5.15;;;3.47;;
64816;SDS011;69411;45.656;11.740;2023-08-01T02:34:20;6.28;;;4.30;;
64816;SDS011;69411;45.656;11.740;2023-08-01T02:36:46;4.32;;;3.63;;
64816;SDS011;69411;45.656;11.740;2023-08-01T02:39:12;4.00;;;3.15;;
64816;SDS011;69411;45.656;11.740;2023-08-01T02:41:38;4.45;;;3.30;;
64816;SDS011;69411;45.656;11.740;2023-08-01T02:44:04;4.82;;;3.47;;
64816;SDS011;69411;45.656;11.740;2023-08-01T02:46:30;4.53;;;3.38;;
64816;SDS011;69411;45.656;11.740;2023-08-01T02:48:56;5.75;;;3.50;;
64816;SDS011;69411;45.656;11.740;2023-08-01T02:51:22;3.80;;;3.28;;
64816;SDS011;69411;45.656;11.740;2023-08-01T02:53:48;4.63;;;3.70;;
64816;SDS011;69411;45.656;11.740;2023-08-01T02:56:15;5.57;;;3.42;;
64816;SDS011;69411;45.656;11.740;2023-08-01T02:58:41;6.57;;;3.30;;
64816;SDS011;69411;45.656;11.740;2023-08-01T03:01:07;4.72;;;3.38;;
64816;SDS011;69411;45.656;11.740;2023-08-01T03:03:49;5.68;;;3.88;;
64816;SDS011;69411;45.656;11.740;2023-08-01T03:06:16;5.13;;;4.00;;
64816;SDS011;69411;45.656;11.740;2023-08-01T03:08:43;5.07;;;3.90;;
64816;SDS011;69411;45.656;11.740;2023-08-01T03:11:09;5.05;;;3.63;;
64816;SDS011;69411;45.656;11.740;2023-08-01T03:16:58;5.60;;;3.78;;
64816;SDS011;69411;45.656;11.740;2023-08-01T03:19:24;6.45;;;3.80;;
64816;SDS011;69411;45.656;11.740;2023-08-01T03:21:50;5.43;;;4.10;;
64816;SDS011;69411;45.656;11.740;2023-08-01T03:24:16;8.75;;;4.63;;
64816;SDS011;69411;45.656;11.740;2023-08-01T03:26:42;5.22;;;4.20;;
64816;SDS011;69411;45.656;11.740;2023-08-01T03:29:08;5.82;;;4.40;;
64816;SDS011;69411;45.656;11.740;2023-08-01T03:31:33;7.30;;;5.10;;
64816;SDS011;69411;45.656;11.740;2023-08-01T03:33:59;6.55;;;4.43;;
64816;SDS011;69411;45.656;11.740;2023-08-01T03:36:25;5.60;;;4.60;;
64816;SDS011;69411;45.656;11.740;2023-08-01T03:38:52;7.60;;;5.15;;
64816;SDS011;69411;45.656;11.740;2023-08-01T03:41:18;8.60;;;5.68;;
64816;SDS011;69411;45.656;11.740;2023-08-01T03:43:44;7.57;;;5.80;;
64816;SDS011;69411;45.656;11.740;2023-08-01T03:46:10;7.78;;;5.35;;
64816;SDS011;69411;45.656;11.740;2023-08-01T03:48:36;10.50;;;5.70;;
64816;SDS011;69411;45.656;11.740;2023-08-01T03:51:02;8.85;;;5.10;;
64816;SDS011;69411;45.656;11.740;2023-08-01T03:53:29;7.22;;;4.85;;
64816;SDS011;69411;45.656;11.740;2023-08-01T03:55:55;7.25;;;4.85;;
64816;SDS011;69411;45.656;11.740;2023-08-01T03:58:21;5.80;;;4.38;;
64816;SDS011;69411;45.656;11.740;2023-08-01T04:00:48;8.45;;;4.55;;
64816;SDS011;69411;45.656;11.740;2023-08-01T04:03:14;6.22;;;4.25;;
64816;SDS011;69411;45.656;11.740;2023-08-01T04:05:42;8.10;;;5.15;;
64816;SDS011;69411;45.656;11.740;2023-08-01T04:08:08;5.32;;;4.00;;
64816;SDS011;69411;45.656;11.740;2023-08-01T04:10:34;5.18;;;3.88;;
64816;SDS011;69411;45.656;11.740;2023-08-01T04:13:00;5.32;;;3.90;;
64816;SDS011;69411;45.656;11.740;2023-08-01T04:15:27;6.20;;;4.20;;
64816;SDS011;69411;45.656;11.740;2023-08-01T04:17:53;5.72;;;4.53;;
64816;SDS011;69411;45.656;11.740;2023-08-01T04:20:19;6.85;;;4.15;;
64816;SDS011;69411;45.656;11.740;2023-08-01T04:22:45;7.07;;;4.70;;
64816;SDS011;69411;45.656;11.740;2023-08-01T04:25:11;8.68;;;4.30;;
64816;SDS011;69411;45.656;11.740;2023-08-01T04:27:37;5.88;;;4.32;;
64816;SDS011;69411;45.656;11.740;2023-08-01T04:30:03;6.60;;;4.22;;
64816;SDS011;69411;45.656;11.740;2023-08-01T04:32:30;5.82;;;4.30;;
64816;SDS011;69411;45.656;11.740;2023-08-01T04:34:56;6.60;;;4.25;;
64816;SDS011;69411;45.656;11.740;2023-08-01T04:37:22;6.53;;;4.38;;
64816;SDS011;69411;45.656;11.740;2023-08-01T04:39:48;5.03;;;4.10;;
64816;SDS011;69411;45.656;11.740;2023-08-01T04:42:14;5.43;;;4.50;;
64816;SDS011;69411;45.656;11.740;2023-08-01T04:44:40;6.40;;;4.20;;
64816;SDS011;69411;45.656;11.740;2023-08-01T04:47:07;6.43;;;4.13;;
64816;SDS011;69411;45.656;11.740;2023-08-01T04:49:33;6.47;;;4.22;;
64816;SDS011;69411;45.656;11.740;2023-08-01T04:51:59;8.80;;;4.80;;
64816;SDS011;69411;45.656;11.740;2023-08-01T04:54:25;5.45;;;4.15;;
64816;SDS011;69411;45.656;11.740;2023-08-01T04:56:51;6.47;;;4.43;;
64816;SDS011;69411;45.656;11.740;2023-08-01T04:59:17;7.25;;;4.20;;
64816;SDS011;69411;45.656;11.740;2023-08-01T05:01:43;5.32;;;4.18;;
64816;SDS011;69411;45.656;11.740;2023-08-01T05:04:09;7.07;;;4.63;;
64816;SDS011;69411;45.656;11.740;2023-08-01T05:06:35;5.32;;;4.35;;
64816;SDS011;69411;45.656;11.740;2023-08-01T05:09:02;7.97;;;5.10;;
64816;SDS011;69411;45.656;11.740;2023-08-01T05:11:28;5.55;;;4.18;;
64816;SDS011;69411;45.656;11.740;2023-08-01T05:13:53;6.53;;;4.90;;
64816;SDS011;69411;45.656;11.740;2023-08-01T05:16:20;5.18;;;4.32;;
64816;SDS011;69411;45.656;11.740;2023-08-01T05:18:46;5.30;;;4.50;;
64816;SDS011;69411;45.656;11.740;2023-08-01T05:21:12;7.60;;;4.95;;
64816;SDS011;69411;45.656;11.740;2023-08-01T05:23:38;8.20;;;5.25;;
64816;SDS011;69411;45.656;11.740;2023-08-01T05:26:04;6.72;;;5.07;;
64816;SDS011;69411;45.656;11.740;2023-08-01T05:28:30;7.10;;;4.32;;
64816;SDS011;69411;45.656;11.740;2023-08-01T05:30:56;7.28;;;5.35;;
64816;SDS011;69411;45.656;11.740;2023-08-01T05:33:23;6.10;;;4.55;;
64816;SDS011;69411;45.656;11.740;2023-08-01T05:35:49;12.90;;;5.68;;
64816;SDS011;69411;45.656;11.740;2023-08-01T05:38:15;6.47;;;5.00;;
64816;SDS011;69411;45.656;11.740;2023-08-01T05:40:41;6.50;;;4.40;;
64816;SDS011;69411;45.656;11.740;2023-08-01T05:43:07;5.70;;;4.38;;
64816;SDS011;69411;45.656;11.740;2023-08-01T05:45:36;6.30;;;5.15;;
64816;SDS011;69411;45.656;11.740;2023-08-01T05:48:02;6.63;;;5.03;;
64816;SDS011;69411;45.656;11.740;2023-08-01T05:50:28;8.45;;;5.47;;
64816;SDS011;69411;45.656;11.740;2023-08-01T05:52:55;7.03;;;5.18;;
64816;SDS011;69411;45.656;11.740;2023-08-01T05:55:21;6.38;;;5.00;;
64816;SDS011;69411;45.656;11.740;2023-08-01T05:57:47;7.03;;;5.28;;
64816;SDS011;69411;45.656;11.740;2023-08-01T06:00:18;9.50;;;5.47;;
64816;SDS011;69411;45.656;11.740;2023-08-01T06:02:46;7.70;;;5.03;;
64816;SDS011;69411;45.656;11.740;2023-08-01T06:05:12;6.88;;;5.38;;
64816;SDS011;69411;45.656;11.740;2023-08-01T06:07:38;9.60;;;5.30;;
64816;SDS011;69411;45.656;11.740;2023-08-01T06:10:04;7.30;;;5.28;;
64816;SDS011;69411;45.656;11.740;2023-08-01T06:12:31;6.55;;;5.15;;
64816;SDS011;69411;45.656;11.740;2023-08-01T06:14:56;12.43;;;6.20;;
64816;SDS011;69411;45.656;11.740;2023-08-01T06:17:22;14.18;;;6.28;;
64816;SDS011;69411;45.656;11.740;2023-08-01T06:19:48;11.88;;;5.75;;
64816;SDS011;69411;45.656;11.740;2023-08-01T06:22:15;15.73;;;8.50;;
64816;SDS011;69411;45.656;11.740;2023-08-01T06:24:41;17.83;;;8.63;;
64816;SDS011;69411;45.656;11.740;2023-08-01T06:27:07;13.75;;;7.75;;
64816;SDS011;69411;45.656;11.740;2023-08-01T06:29:33;12.32;;;6.13;;
64816;SDS011;69411;45.656;11.740;2023-08-01T06:31:59;8.30;;;3.85;;
64816;SDS011;69411;45.656;11.740;2023-08-01T06:34:25;5.03;;;3.10;;
64816;SDS011;69411;45.656;11.740;2023-08-01T06:36:51;4.22;;;3.20;;
64816;SDS011;69411;45.656;11.740;2023-08-01T06:39:17;4.93;;;3.30;;
64816;SDS011;69411;45.656;11.740;2023-08-01T06:41:43;4.60;;;3.30;;
64816;SDS011;69411;45.656;11.740;2023-08-01T06:44:09;6.28;;;4.30;;
64816;SDS011;69411;45.656;11.740;2023-08-01T06:46:34;4.05;;;3.60;;
64816;SDS011;69411;45.656;11.740;2023-08-01T06:49:01;6.32;;;4.20;;
64816;SDS011;69411;45.656;11.740;2023-08-01T06:51:27;6.03;;;4.50;;
64816;SDS011;69411;45.656;11.740;2023-08-01T06:53:53;6.75;;;5.03;;
64816;SDS011;69411;45.656;11.740;2023-08-01T06:56:19;8.20;;;5.63;;
64816;SDS011;69411;45.656;11.740;2023-08-01T06:58:46;10.57;;;5.60;;
64816;SDS011;69411;45.656;11.740;2023-08-01T07:01:12;9.20;;;5.80;;
64816;SDS011;69411;45.656;11.740;2023-08-01T07:03:38;7.88;;;5.50;;
64816;SDS011;69411;45.656;11.740;2023-08-01T07:06:04;9.18;;;5.90;;
64816;SDS011;69411;45.656;11.740;2023-08-01T07:08:30;8.65;;;5.95;;
64816;SDS011;69411;45.656;11.740;2023-08-01T07:10:58;8.13;;;5.85;;
64816;SDS011;69411;45.656;11.740;2023-08-01T07:13:24;9.02;;;5.90;;
64816;SDS011;69411;45.656;11.740;2023-08-01T07:15:50;8.20;;;6.10;;
64816;SDS011;69411;45.656;11.740;2023-08-01T07:18:16;9.02;;;6.07;;
64816;SDS011;69411;45.656;11.740;2023-08-01T07:20:44;8.05;;;5.88;;
64816;SDS011;69411;45.656;11.740;2023-08-01T07:23:10;9.10;;;5.25;;
64816;SDS011;69411;45.656;11.740;2023-08-01T07:25:36;8.38;;;5.30;;
64816;SDS011;69411;45.656;11.740;2023-08-01T07:28:02;8.63;;;6.10;;
64816;SDS011;69411;45.656;11.740;2023-08-01T07:30:28;7.10;;;4.85;;
64816;SDS011;69411;45.656;11.740;2023-08-01T07:32:54;7.50;;;5.13;;
64816;SDS011;69411;45.656;11.740;2023-08-01T07:35:20;7.57;;;5.30;;
64816;SDS011;69411;45.656;11.740;2023-08-01T07:37:46;8.80;;;6.13;;
64816;SDS011;69411;45.656;11.740;2023-08-01T07:40:12;6.75;;;5.15;;
64816;SDS011;69411;45.656;11.740;2023-08-01T07:42:38;8.00;;;4.95;;
64816;SDS011;69411;45.656;11.740;2023-08-01T07:45:04;9.07;;;5.63;;
64816;SDS011;69411;45.656;11.740;2023-08-01T07:47:32;9.20;;;5.53;;
64816;SDS011;69411;45.656;11.740;2023-08-01T07:49:58;8.00;;;5.70;;
64816;SDS011;69411;45.656;11.740;2023-08-01T07:52:24;10.73;;;5.93;;
64816;SDS011;69411;45.656;11.740;2023-08-01T07:54:50;7.72;;;5.10;;
64816;SDS011;69411;45.656;11.740;2023-08-01T07:57:18;7.13;;;5.07;;
64816;SDS011;69411;45.656;11.740;2023-08-01T07:59:44;6.65;;;5.55;;
64816;SDS011;69411;45.656;11.740;2023-08-01T08:02:10;7.50;;;5.30;;
64816;SDS011;69411;45.656;11.740;2023-08-01T08:04:36;8.45;;;5.93;;
64816;SDS011;69411;45.656;11.740;2023-08-01T08:07:02;7.88;;;4.90;;
64816;SDS011;69411;45.656;11.740;2023-08-01T08:09:28;7.90;;;5.20;;
64816;SDS011;69411;45.656;11.740;2023-08-01T08:11:54;7.22;;;5.00;;
64816;SDS011;69411;45.656;11.740;2023-08-01T08:14:22;7.57;;;4.70;;
64816;SDS011;69411;45.656;11.740;2023-08-01T08:16:49;8.02;;;5.07;;
64816;SDS011;69411;45.656;11.740;2023-08-01T08:19:16;7.22;;;5.30;;
64816;SDS011;69411;45.656;11.740;2023-08-01T08:21:42;7.55;;;4.78;;
64816;SDS011;69411;45.656;11.740;2023-08-01T08:24:08;6.85;;;5.20;;
64816;SDS011;69411;45.656;11.740;2023-08-01T08:26:34;6.72;;;5.07;;
64816;SDS011;69411;45.656;11.740;2023-08-01T08:29:03;7.90;;;5.80;;
64816;SDS011;69411;45.656;11.740;2023-08-01T08:31:32;8.30;;;5.40;;
64816;SDS011;69411;45.656;11.740;2023-08-01T08:33:58;5.90;;;4.30;;
64816;SDS011;69411;45.656;11.740;2023-08-01T08:36:24;6.18;;;4.13;;
64816;SDS011;69411;45.656;11.740;2023-08-01T08:38:50;6.47;;;4.60;;
64816;SDS011;69411;45.656;11.740;2023-08-01T08:41:20;6.55;;;4.55;;
64816;SDS011;69411;45.656;11.740;2023-08-01T08:43:47;5.95;;;4.28;;
64816;SDS011;69411;45.656;11.740;2023-08-01T08:46:15;5.38;;;3.92;;
64816;SDS011;69411;45.656;11.740;2023-08-01T08:48:42;7.22;;;4.22;;
64816;SDS011;69411;45.656;11.740;2023-08-01T08:51:11;6.88;;;4.45;;
64816;SDS011;69411;45.656;11.740;2023-08-01T08:53:38;7.25;;;4.50;;
64816;SDS011;69411;45.656;11.740;2023-08-01T08:56:07;6.07;;;4.20;;
64816;SDS011;69411;45.656;11.740;2023-08-01T08:58:34;4.80;;;4.10;;
64816;SDS011;69411;45.656;11.740;2023-08-01T09:01:04;6.80;;;4.28;;
64816;SDS011;69411;45.656;11.740;2023-08-01T09:03:35;7.43;;;4.10;;
64816;SDS011;69411;45.656;11.740;2023-08-01T09:06:07;6.28;;;3.88;;
64816;SDS011;69411;45.656;11.740;2023-08-01T09:08:44;6.47;;;4.30;;
64816;SDS011;69411;45.656;11.740;2023-08-01T09:11:25;4.60;;;3.38;;
64816;SDS011;69411;45.656;11.740;2023-08-01T09:13:54;6.63;;;3.85;;
64816;SDS011;69411;45.656;11.740;2023-08-01T09:16:21;5.25;;;3.80;;
64816;SDS011;69411;45.656;11.740;2023-08-01T09:18:47;7.00;;;4.45;;
64816;SDS011;69411;45.656;11.740;2023-08-01T09:21:13;5.78;;;4.05;;
64816;SDS011;69411;45.656;11.740;2023-08-01T09:23:39;5.30;;;3.95;;
64816;SDS011;69411;45.656;11.740;2023-08-01T09:26:19;5.38;;;3.50;;
64816;SDS011;69411;45.656;11.740;2023-08-01T09:28:55;5.68;;;3.70;;
64816;SDS011;69411;45.656;11.740;2023-08-01T09:31:32;5.18;;;3.88;;
64816;SDS011;69411;45.656;11.740;2023-08-01T09:33:59;5.38;;;3.88;;
64816;SDS011;69411;45.656;11.740;2023-08-01T09:36:26;6.35;;;3.78;;
64816;SDS011;69411;45.656;11.740;2023-08-01T09:38:57;3.40;;;2.92;;
64816;SDS011;69411;45.656;11.740;2023-08-01T09:41:25;4.82;;;3.45;;
64816;SDS011;69411;45.656;11.740;2023-08-01T09:43:51;4.43;;;3.47;;
64816;SDS011;69411;45.656;11.740;2023-08-01T09:46:17;5.32;;;3.50;;
64816;SDS011;69411;45.656;11.740;2023-08-01T09:48:43;5.35;;;3.45;;
64816;SDS011;69411;45.656;11.740;2023-08-01T09:51:10;5.35;;;3.78;;
64816;SDS011;69411;45.656;11.740;2023-08-01T09:56:21;9.75;;;3.47;;
64816;SDS011;69411;45.656;11.740;2023-08-01T09:58:48;3.60;;;3.30;;
64816;SDS011;69411;45.656;11.740;2023-08-01T10:01:16;4.80;;;3.20;;
64816;SDS011;69411;45.656;11.740;2023-08-01T10:03:52;5.78;;;3.42;;
64816;SDS011;69411;45.656;11.740;2023-08-01T10:06:19;4.90;;;3.60;;
64816;SDS011;69411;45.656;11.740;2023-08-01T10:08:47;3.65;;;3.10;;
64816;SDS011;69411;45.656;11.740;2023-08-01T10:11:17;5.57;;;3.58;;
64816;SDS011;69411;45.656;11.740;2023-08-01T10:13:45;8.70;;;4.10;;
64816;SDS011;69411;45.656;11.740;2023-08-01T10:16:12;5.63;;;3.75;;
64816;SDS011;69411;45.656;11.740;2023-08-01T10:18:39;6.47;;;3.45;;
64816;SDS011;69411;45.656;11.740;2023-08-01T10:21:06;4.85;;;3.40;;
64816;SDS011;69411;45.656;11.740;2023-08-01T10:23:33;4.32;;;3.60;;
64816;SDS011;69411;45.656;11.740;2023-08-01T10:26:01;4.50;;;3.50;;
64816;SDS011;69411;45.656;11.740;2023-08-01T10:28:34;5.65;;;3.70;;
64816;SDS011;69411;45.656;11.740;2023-08-01T10:33:40;5.13;;;3.30;;
64816;SDS011;69411;45.656;11.740;2023-08-01T10:36:16;3.63;;;3.33;;
64816;SDS011;69411;45.656;11.740;2023-08-01T10:38:47;5.18;;;3.58;;
64816;SDS011;69411;45.656;11.740;2023-08-01T10:41:36;4.35;;;3.40;;
64816;SDS011;69411;45.656;11.740;2023-08-01T10:44:13;3.38;;;3.08;;
64816;SDS011;69411;45.656;11.740;2023-08-01T10:49:15;5.35;;;3.53;;
64816;SDS011;69411;45.656;11.740;2023-08-01T10:51:43;4.80;;;3.60;;
64816;SDS011;69411;45.656;11.740;2023-08-01T10:54:22;3.70;;;3.05;;
64816;SDS011;69411;45.656;11.740;2023-08-01T10:56:50;4.18;;;3.25;;
64816;SDS011;69411;45.656;11.740;2023-08-01T10:59:18;4.32;;;3.30;;
64816;SDS011;69411;45.656;11.740;2023-08-01T11:01:48;3.53;;;2.90;;
64816;SDS011;69411;45.656;11.740;2023-08-01T11:04:16;4.55;;;3.10;;
64816;SDS011;69411;45.656;11.740;2023-08-01T11:06:49;3.90;;;2.90;;
64816;SDS011;69411;45.656;11.740;2023-08-01T11:11:44;3.63;;;2.78;;
64816;SDS011;69411;45.656;11.740;2023-08-01T11:14:11;3.33;;;3.03;;
64816;SDS011;69411;45.656;11.740;2023-08-01T11:16:41;3.60;;;3.22;;
64816;SDS011;69411;45.656;11.740;2023-08-01T11:19:22;5.35;;;3.15;;
64816;SDS011;69411;45.656;11.740;2023-08-01T11:21:50;3.35;;;3.05;;
64816;SDS011;69411;45.656;11.740;2023-08-01T11:24:17;4.88;;;3.17;;
64816;SDS011;69411;45.656;11.740;2023-08-01T11:26:44;3.63;;;3.00;;
64816;SDS011;69411;45.656;11.740;2023-08-01T11:29:12;3.38;;;2.78;;
64816;SDS011;69411;45.656;11.740;2023-08-01T11:31:39;4.13;;;3.08;;
64816;SDS011;69411;45.656;11.740;2023-08-01T11:34:09;3.75;;;2.97;;
64816;SDS011;69411;45.656;11.740;2023-08-01T11:36:35;4.60;;;3.00;;
64816;SDS011;69411;45.656;11.740;2023-08-01T11:39:02;3.80;;;3.10;;
64816;SDS011;69411;45.656;11.740;2023-08-01T11:41:28;4.78;;;3.15;;
64816;SDS011;69411;45.656;11.740;2023-08-01T11:43:55;3.83;;;3.33;;
64816;SDS011;69411;45.656;11.740;2023-08-01T11:46:33;3.17;;;2.65;;
64816;SDS011;69411;45.656;11.740;2023-08-01T11:49:01;3.50;;;3.20;;
64816;SDS011;69411;45.656;11.740;2023-08-01T11:51:28;4.72;;;3.60;;
64816;SDS011;69411;45.656;11.740;2023-08-01T11:53:58;3.80;;;3.20;;
64816;SDS011;69411;45.656;11.740;2023-08-01T11:56:35;3.30;;;3.00;;
64816;SDS011;69411;45.656;11.740;2023-08-01T11:59:07;3.90;;;3.28;;
64816;SDS011;69411;45.656;11.740;2023-08-01T12:01:38;4.78;;;3.55;;
64816;SDS011;69411;45.656;11.740;2023-08-01T12:04:05;3.70;;;2.90;;
64816;SDS011;69411;45.656;11.740;2023-08-01T12:06:32;4.35;;;3.20;;
64816;SDS011;69411;45.656;11.740;2023-08-01T12:09:05;5.43;;;3.25;;
64816;SDS011;69411;45.656;11.740;2023-08-01T12:11:36;3.25;;;2.88;;
64816;SDS011;69411;45.656;11.740;2023-08-01T12:14:07;3.78;;;2.97;;
64816;SDS011;69411;45.656;11.740;2023-08-01T12:16:35;3.78;;;3.22;;
64816;SDS011;69411;45.656;11.740;2023-08-01T12:19:02;5.25;;;3.53;;
64816;SDS011;69411;45.656;11.740;2023-08-01T12:21:28;4.07;;;3.30;;
64816;SDS011;69411;45.656;11.740;2023-08-01T12:23:56;4.13;;;3.13;;
64816;SDS011;69411;45.656;11.740;2023-08-01T12:26:22;4.47;;;3.38;;
64816;SDS011;69411;45.656;11.740;2023-08-01T12:28:49;3.10;;;2.80;;
64816;SDS011;69411;45.656;11.740;2023-08-01T12:31:15;3.20;;;2.90;;
64816;SDS011;69411;45.656;11.740;2023-08-01T12:33:43;6.07;;;3.58;;
64816;SDS011;69411;45.656;11.740;2023-08-01T12:36:10;3.22;;;2.90;;
64816;SDS011;69411;45.656;11.740;2023-08-01T12:38:37;3.53;;;3.22;;
64816;SDS011;69411;45.656;11.740;2023-08-01T12:41:04;4.88;;;3.30;;
64816;SDS011;69411;45.656;11.740;2023-08-01T12:43:30;4.50;;;3.53;;
64816;SDS011;69411;45.656;11.740;2023-08-01T12:45:56;3.40;;;3.10;;
64816;SDS011;69411;45.656;11.740;2023-08-01T12:48:26;5.70;;;3.92;;
64816;SDS011;69411;45.656;11.740;2023-08-01T12:50:53;4.05;;;3.65;;
64816;SDS011;69411;45.656;11.740;2023-08-01T12:53:20;4.10;;;3.42;;
64816;SDS011;69411;45.656;11.740;2023-08-01T12:55:47;3.50;;;3.20;;
64816;SDS011;69411;45.656;11.740;2023-08-01T12:58:14;4.47;;;3.30;;
64816;SDS011;69411;45.656;11.740;2023-08-01T13:00:40;6.22;;;3.55;;
64816;SDS011;69411;45.656;11.740;2023-08-01T13:03:08;4.50;;;3.33;;
64816;SDS011;69411;45.656;11.740;2023-08-01T13:05:37;3.33;;;3.03;;
64816;SDS011;69411;45.656;11.740;2023-08-01T13:08:05;3.95;;;3.20;;
64816;SDS011;69411;45.656;11.740;2023-08-01T13:10:32;5.65;;;3.67;;
64816;SDS011;69411;45.656;11.740;2023-08-01T13:12:59;5.30;;;3.40;;
64816;SDS011;69411;45.656;11.740;2023-08-01T13:15:25;5.60;;;3.58;;
64816;SDS011;69411;45.656;11.740;2023-08-01T13:17:52;3.75;;;3.30;;
64816;SDS011;69411;45.656;11.740;2023-08-01T13:20:19;3.70;;;3.30;;
64816;SDS011;69411;45.656;11.740;2023-08-01T13:22:45;4.15;;;3.25;;
64816;SDS011;69411;45.656;11.740;2023-08-01T13:25:13;3.58;;;3.25;;
64816;SDS011;69411;45.656;11.740;2023-08-01T13:27:39;5.28;;;3.53;;
64816;SDS011;69411;45.656;11.740;2023-08-01T13:30:06;5.32;;;3.53;;
64816;SDS011;69411;45.656;11.740;2023-08-01T13:32:33;3.85;;;3.30;;
64816;SDS011;69411;45.656;11.740;2023-08-01T13:34:59;6.53;;;3.45;;
64816;SDS011;69411;45.656;11.740;2023-08-01T13:37:26;5.30;;;3.72;;
64816;SDS011;69411;45.656;11.740;2023-08-01T13:39:54;4.90;;;3.50;;
64816;SDS011;69411;45.656;11.740;2023-08-01T13:42:21;4.82;;;3.78;;
64816;SDS011;69411;45.656;11.740;2023-08-01T13:44:48;6.10;;;3.80;;
64816;SDS011;69411;45.656;11.740;2023-08-01T13:47:14;3.95;;;3.50;;
64816;SDS011;69411;45.656;11.740;2023-08-01T13:49:40;5.63;;;3.40;;
64816;SDS011;69411;45.656;11.740;2023-08-01T13:52:06;4.07;;;3.40;;
64816;SDS011;69411;45.656;11.740;2023-08-01T13:54:32;3.40;;;3.10;;
64816;SDS011;69411;45.656;11.740;2023-08-01T13:56:58;5.82;;;3.42;;
64816;SDS011;69411;45.656;11.740;2023-08-01T13:59:25;4.93;;;3.60;;
64816;SDS011;69411;45.656;11.740;2023-08-01T14:01:51;3.95;;;3.55;;
64816;SDS011;69411;45.656;11.740;2023-08-01T14:04:18;3.50;;;3.20;;
64816;SDS011;69411;45.656;11.740;2023-08-01T14:06:44;4.00;;;3.50;;
64816;SDS011;69411;45.656;11.740;2023-08-01T14:09:10;4.00;;;3.40;;
64816;SDS011;69411;45.656;11.740;2023-08-01T14:11:36;4.35;;;3.30;;
64816;SDS011;69411;45.656;11.740;2023-08-01T14:14:03;4.57;;;3.60;;
64816;SDS011;69411;45.656;11.740;2023-08-01T14:16:29;4.93;;;3.67;;
64816;SDS011;69411;45.656;11.740;2023-08-01T14:18:56;4.70;;;3.70;;
64816;SDS011;69411;45.656;11.740;2023-08-01T14:21:22;3.50;;;3.20;;
64816;SDS011;69411;45.656;11.740;2023-08-01T14:23:48;3.63;;;3.30;;
64816;SDS011;69411;45.656;11.740;2023-08-01T14:26:14;6.22;;;3.70;;
64816;SDS011;69411;45.656;11.740;2023-08-01T14:28:40;4.10;;;3.70;;
64816;SDS011;69411;45.656;11.740;2023-08-01T14:31:06;4.20;;;3.80;;
64816;SDS011;69411;45.656;11.740;2023-08-01T14:33:33;6.28;;;4.00;;
64816;SDS011;69411;45.656;11.740;2023-08-01T14:35:59;5.03;;;4.10;;
64816;SDS011;69411;45.656;11.740;2023-08-01T14:38:25;7.35;;;4.80;;
64816;SDS011;69411;45.656;11.740;2023-08-01T14:40:52;6.50;;;3.88;;
64816;SDS011;69411;45.656;11.740;2023-08-01T14:43:18;6.38;;;4.50;;
64816;SDS011;69411;45.656;11.740;2023-08-01T14:45:45;7.55;;;4.15;;